Diane B. — WDG8255 — position and weather

sailwx.info

Track history (hours):
 
Tides and Currents Weather Stations Pressure Air Temp Water Temp Dewpoint Dewpoint Depression Visibility Wind Speed Wind Dir Waves Ship Positions

Diane B.

Owner: Bernert Barge lines, Oregon City, OR. More information available from US FCC via Universal Licensing System and Coast Guard Vessel Documentation Center.

Last reported at 2017-Oct-19 06:07 UTC. Time now 2017-Oct-19 16:20 UTC.
Position N 45°35' W 122°10'.

Length 25 m.

Type: Towing. MMSI: 367575580.

Date/timePositionNaut miles runAvg speedWind from/ knotsBaromVisibWave heightAir tempDewpointWater temp
2017-Oct-19 06:07N 45°35' W 122°10'1 6.1
2017-Oct-19 05:59N 45°34' W 122°12'3 5.5
2017-Oct-19 05:30N 45°33' W 122°15'4 5.5
2017-Oct-19 04:51N 45°33' W 122°20'2 5.1
2017-Oct-19 04:30N 45°34' W 122°22'3 5.3
2017-Oct-19 03:53N 45°34' W 122°27'3 5.6
2017-Oct-19 03:25N 45°35' W 122°30'3 5.8
2017-Oct-19 02:59N 45°36' W 122°33'3 5.9
2017-Oct-19 02:31N 45°36' W 122°37'3 6.0
2017-Oct-19 01:58N 45°38' W 122°41'3 6.1
2017-Oct-19 01:30N 45°39' W 122°45'3 5.2
2017-Oct-19 01:01N 45°37' W 122°47'2 4.2
2017-Oct-19 00:30N 45°35' W 122°46'3 5.6
2017-Oct-19 00:01N 45°33' W 122°43'0 0.1
2017-Oct-18 23:31N 45°33' W 122°43'3 5.3
2017-Oct-18 23:01N 45°35' W 122°46'2 4.1
2017-Oct-18 22:31N 45°37' W 122°47'0 0.0
2017-Oct-18 22:00N 45°37' W 122°47'2 3.8
2017-Oct-18 21:26N 45°35' W 122°46'3 5.9
2017-Oct-18 21:00N 45°33' W 122°43'1 1.9
2017-Oct-18 20:31N 45°33' W 122°42'3 6.4
2017-Oct-18 20:01N 45°30' W 122°40'0 0.9
2017-Oct-18 19:30N 45°29' W 122°40'2 4.0
2017-Oct-18 19:01N 45°31' W 122°40'3 5.6
2017-Oct-18 18:31N 45°33' W 122°43'3 5.8
2017-Oct-18 18:00N 45°31' W 122°40'2 3.9
2017-Oct-18 17:30N 45°29' W 122°40'0 0.4
2017-Oct-18 17:01N 45°29' W 122°40'0 0.1
2017-Oct-18 16:30N 45°30' W 122°40'0 0.0
2017-Oct-18 15:52N 45°29' W 122°40'0 0.2
2017-Oct-18 15:25N 45°29' W 122°40'0 0.1
2017-Oct-18 15:00N 45°29' W 122°40'0 0.4
2017-Oct-18 14:01N 45°29' W 122°40'0 0.0
2017-Oct-18 13:30N 45°29' W 122°40'0 0.0
2017-Oct-18 12:44N 45°29' W 122°40'0 0.0
2017-Oct-18 12:31N 45°29' W 122°40'0 0.0
2017-Oct-18 12:00N 45°29' W 122°40'0 0.0
2017-Oct-18 11:31N 45°29' W 122°40'0 0.0
2017-Oct-18 11:01N 45°29' W 122°40'0 0.0
2017-Oct-18 10:30N 45°29' W 122°40'0 0.0
2017-Oct-18 10:00N 45°29' W 122°40'0 0.0
2017-Oct-18 09:30N 45°29' W 122°40'0 0.0
2017-Oct-18 08:48N 45°29' W 122°40'0 0.2
2017-Oct-18 08:18N 45°29' W 122°40'0 0.1
2017-Oct-18 08:01N 45°29' W 122°40'0 0.3
2017-Oct-18 07:30N 45°29' W 122°40'0 0.3
2017-Oct-18 07:01N 45°29' W 122°40'0 0.0
2017-Oct-18 06:30N 45°29' W 122°40'0 0.0
2017-Oct-18 05:51N 45°29' W 122°40'0 0.0
2017-Oct-18 05:30N 45°29' W 122°40'0 0.0
2017-Oct-18 05:00N 45°29' W 122°40'0 0.0
2017-Oct-18 04:30N 45°29' W 122°40'0 0.0
2017-Oct-18 04:00N 45°29' W 122°40'0 0.0
2017-Oct-18 03:30N 45°29' W 122°40'0 0.0
2017-Oct-18 03:01N 45°29' W 122°40'0 0.0
2017-Oct-18 02:30N 45°29' W 122°40'0 0.0
2017-Oct-18 02:01N 45°29' W 122°40'0 0.0
2017-Oct-18 01:30N 45°29' W 122°40'0 0.0
2017-Oct-18 01:01N 45°29' W 122°40'0 0.0
2017-Oct-18 00:31N 45°29' W 122°40'0 0.0
2017-Oct-18 00:01N 45°29' W 122°40'0 0.0
2017-Oct-17 23:28N 45°29' W 122°40'0 0.0
2017-Oct-17 23:00N 45°29' W 122°40'0 0.0
2017-Oct-17 22:30N 45°29' W 122°40'0 0.0
2017-Oct-17 22:01N 45°29' W 122°40'0 0.0
2017-Oct-17 21:31N 45°29' W 122°40'0 0.0
2017-Oct-17 21:00N 45°29' W 122°40'0 0.0
2017-Oct-17 20:30N 45°29' W 122°40'0 0.0
2017-Oct-17 20:00N 45°29' W 122°40'0 0.2
2017-Oct-17 19:30N 45°29' W 122°40'1 1.3
2017-Oct-17 19:01N 45°30' W 122°40'2 3.2
2017-Oct-17 18:31N 45°31' W 122°40'2 4.1
2017-Oct-17 18:01N 45°33' W 122°42'2 4.8
2017-Oct-17 17:30N 45°35' W 122°45'2 4.6
2017-Oct-17 17:01N 45°36' W 122°47'3 6.4
2017-Oct-17 16:30N 45°39' W 122°45'1 2.9
2017-Oct-17 16:00N 45°39' W 122°44'3 6.3
2017-Oct-17 15:30N 45°37' W 122°40'3 5.5
2017-Oct-17 14:58N 45°36' W 122°36'3 6.0
2017-Oct-17 14:29N 45°35' W 122°32'3 5.9
2017-Oct-17 13:55N 45°34' W 122°27'2 5.5
2017-Oct-17 13:30N 45°34' W 122°24'3 5.1
2017-Oct-17 13:00N 45°34' W 122°20'3 5.3
2017-Oct-17 12:31N 45°33' W 122°17'3 5.6
2017-Oct-17 11:58N 45°34' W 122°13'2 0.1
2017-Oct-16 00:02N 45°35' W 122°10'1 5.9
2017-Oct-15 23:57N 45°35' W 122°11'3 6.0
2017-Oct-15 23:29N 45°33' W 122°14'3 5.8
2017-Oct-15 23:00N 45°33' W 122°18'3 6.0
2017-Oct-15 22:31N 45°34' W 122°22'3 6.1
2017-Oct-15 22:00N 45°34' W 122°26'3 6.0
2017-Oct-15 21:30N 45°35' W 122°30'3 6.3
2017-Oct-15 20:59N 45°36' W 122°34'3 6.6
2017-Oct-15 20:30N 45°37' W 122°39'3 5.3
2017-Oct-15 20:00N 45°38' W 122°42'3 4.9
2017-Oct-15 19:25N 45°39' W 122°46'2 6.2
2017-Oct-15 19:01N 45°37' W 122°47'3 7.0
2017-Oct-15 18:30N 45°34' W 122°44'1 2.5
2017-Oct-15 18:01N 45°34' W 122°43'1 1.3
2017-Oct-15 17:31N 45°33' W 122°42'4 7.2
2017-Oct-15 17:01N 45°30' W 122°40'1 1.9
2017-Oct-15 16:31N 45°31' W 122°40'2 4.8
2017-Oct-15 16:00N 45°33' W 122°42'0 0.4
2017-Oct-15 15:31N 45°33' W 122°42'3 6.4
2017-Oct-15 15:00N 45°30' W 122°40'5 4.3
2017-Oct-15 13:54N 45°34' W 122°44'2 5.9
2017-Oct-15 13:30N 45°35' W 122°46'2 0.1
2017-Oct-15 00:18N 45°37' W 122°47'0 0.0
2017-Oct-15 00:00N 45°37' W 122°47'2 3.4
2017-Oct-14 23:31N 45°35' W 122°46'2 4.0
2017-Oct-14 23:00N 45°34' W 122°44'0 0.0
2017-Oct-14 22:30N 45°34' W 122°44'0 0.0
2017-Oct-14 22:01N 45°34' W 122°44'2 3.5
2017-Oct-14 21:30N 45°35' W 122°46'4 8.0
2017-Oct-14 21:01N 45°39' W 122°46'5 9.2
2017-Oct-14 20:31N 45°44' W 122°46'5 9.2
2017-Oct-14 20:01N 45°48' W 122°47'5 9.4
2017-Oct-14 19:30N 45°53' W 122°48'5 9.4
2017-Oct-14 19:00N 45°57' W 122°49'5 9.5
2017-Oct-14 18:31N 46°02' W 122°52'4 8.9
2017-Oct-14 18:00N 46°05' W 122°56'2 4.0
2017-Oct-14 17:30N 46°07' W 122°58'0 0.4
2017-Oct-14 17:00N 46°07' W 122°58'0 0.4
2017-Oct-14 16:30N 46°07' W 122°58'1 1.7
2017-Oct-14 16:01N 46°06' W 122°58'5 9.5
2017-Oct-14 15:30N 46°02' W 122°53'1 2.7
2017-Oct-14 15:01N 46°01' W 122°52'4 8.4
2017-Oct-14 14:31N 45°58' W 122°49'4 8.3
2017-Oct-14 14:01N 45°53' W 122°48'4 8.1
2017-Oct-14 13:31N 45°49' W 122°48'4 7.7
2017-Oct-14 13:01N 45°46' W 122°46'4 8.0
2017-Oct-14 12:30N 45°42' W 122°46'3 7.0
2017-Oct-14 12:00N 45°39' W 122°44'4 7.8
2017-Oct-14 11:30N 45°37' W 122°39'4 7.6
2017-Oct-14 11:00N 45°36' W 122°34'4 7.8
2017-Oct-14 10:30N 45°35' W 122°29'4 7.1
2017-Oct-14 10:00N 45°34' W 122°24'3 6.3
2017-Oct-14 09:31N 45°33' W 122°20'3 5.8
2017-Oct-14 09:00N 45°33' W 122°15'4 7.3
2017-Oct-14 08:31N 45°35' W 122°11'4 7.1
2017-Oct-14 07:58N 45°35' W 122°06'12 0.8
2017-Oct-13 15:48N 45°42' W 121°51'10 5.0
2017-Oct-13 13:49N 45°37' W 122°03'3 7.6
2017-Oct-13 13:29N 45°35' W 122°06'5 7.2
2017-Oct-13 12:50N 45°34' W 122°12'2 7.5
2017-Oct-13 12:31N 45°33' W 122°15'4 6.9
2017-Oct-13 11:57N 45°34' W 122°21'3 5.8
2017-Oct-13 11:30N 45°34' W 122°24'3 6.2
2017-Oct-13 11:00N 45°35' W 122°28'3 6.8
2017-Oct-13 10:30N 45°36' W 122°33'3 6.7
2017-Oct-13 10:00N 45°36' W 122°38'4 6.8
2017-Oct-13 09:28N 45°38' W 122°42'3 6.9
2017-Oct-13 09:00N 45°40' W 122°46'510.8
2017-Oct-13 08:30N 45°46' W 122°46'3 4.1
2017-Oct-13 07:53N 45°48' W 122°47'3 7.0
2017-Oct-13 07:30N 45°51' W 122°47'4 7.0
2017-Oct-13 06:59N 45°54' W 122°48'4 7.5
2017-Oct-13 06:31N 45°58' W 122°49'5 8.0
2017-Oct-13 05:56N 46°02' W 122°53'3 8.0
2017-Oct-13 05:31N 46°05' W 122°54'3 6.1
2017-Oct-13 05:00N 46°07' W 122°58'0 0.9
2017-Oct-13 04:30N 46°07' W 122°58'2 4.3
2017-Oct-13 04:01N 46°05' W 122°56'1 1.8
2017-Oct-13 03:30N 46°05' W 122°55'4 7.9
2017-Oct-13 03:01N 46°02' W 122°52'6 8.5
2017-Oct-13 02:21N 45°57' W 122°49'3 9.2
2017-Oct-13 02:01N 45°53' W 122°48'5 9.3
2017-Oct-13 01:30N 45°49' W 122°48'5 9.4
2017-Oct-13 01:00N 45°44' W 122°46'5 9.7
2017-Oct-13 00:31N 45°39' W 122°46'4 7.7
2017-Oct-13 00:01N 45°36' W 122°47'3 5.6
2017-Oct-12 23:30N 45°34' W 122°44'1 1.4
2017-Oct-12 23:00N 45°33' W 122°43'0 0.1
2017-Oct-12 22:31N 45°33' W 122°43'0 0.0
2017-Oct-12 22:01N 45°33' W 122°43'0 0.0
2017-Oct-12 21:31N 45°33' W 122°43'0 0.0
2017-Oct-12 21:00N 45°33' W 122°43'0 0.0
2017-Oct-12 20:30N 45°33' W 122°43'0 0.0
2017-Oct-12 20:01N 45°33' W 122°43'0 0.0
2017-Oct-12 19:30N 45°33' W 122°43'0 0.0
2017-Oct-12 19:00N 45°33' W 122°43'0 0.0
2017-Oct-12 18:31N 45°33' W 122°43'0 0.0
2017-Oct-12 18:00N 45°33' W 122°43'0 0.1
2017-Oct-12 17:30N 45°33' W 122°43'0 0.0
2017-Oct-12 17:00N 45°33' W 122°43'0 0.1
2017-Oct-12 16:30N 45°33' W 122°43'0 0.0
2017-Oct-12 16:01N 45°33' W 122°43'0 0.0
2017-Oct-12 15:31N 45°33' W 122°43'0 0.1
2017-Oct-12 15:01N 45°33' W 122°43'0 0.0
2017-Oct-12 14:30N 45°33' W 122°43'0 0.1
2017-Oct-12 14:00N 45°33' W 122°43'0 0.0
2017-Oct-12 13:31N 45°33' W 122°43'0 0.0
2017-Oct-12 13:00N 45°33' W 122°43'0 0.1
2017-Oct-12 12:30N 45°33' W 122°43'0 0.1
2017-Oct-12 12:00N 45°33' W 122°43'0 0.0
2017-Oct-12 11:31N 45°33' W 122°43'0 0.0
2017-Oct-12 10:57N 45°33' W 122°43'0 0.0
2017-Oct-12 10:31N 45°33' W 122°43'0 0.0
2017-Oct-12 09:51N 45°33' W 122°43'0 0.0
2017-Oct-12 09:30N 45°33' W 122°43'0 0.0
2017-Oct-12 08:56N 45°33' W 122°43'0 0.0
2017-Oct-12 08:31N 45°33' W 122°43'0 0.0
2017-Oct-12 07:43N 45°33' W 122°43'0 0.0
2017-Oct-12 07:30N 45°33' W 122°43'0 0.1
2017-Oct-12 07:00N 45°33' W 122°43'0 0.1
2017-Oct-12 06:30N 45°33' W 122°43'0 0.1
2017-Oct-12 06:00N 45°33' W 122°43'0 0.1
2017-Oct-12 05:26N 45°33' W 122°43'0 0.0
2017-Oct-12 05:00N 45°33' W 122°43'0 0.0
2017-Oct-12 04:31N 45°33' W 122°43'0 0.0
2017-Oct-12 04:00N 45°33' W 122°43'0 0.1
2017-Oct-12 03:31N 45°33' W 122°43'0 0.1
2017-Oct-12 03:01N 45°33' W 122°43'0 0.0
2017-Oct-12 02:30N 45°33' W 122°43'0 0.0
2017-Oct-12 02:00N 45°33' W 122°43'0 0.1
2017-Oct-12 01:31N 45°33' W 122°43'0 0.1
2017-Oct-12 01:00N 45°33' W 122°43'0 0.1
2017-Oct-12 00:30N 45°33' W 122°43'0 0.0
2017-Oct-12 00:00N 45°33' W 122°43'0 0.0
2017-Oct-11 23:31N 45°33' W 122°43'0 0.1
2017-Oct-11 23:00N 45°33' W 122°43'0 0.1
2017-Oct-11 22:30N 45°33' W 122°43'0 0.0
2017-Oct-11 22:00N 45°33' W 122°43'0 0.1
2017-Oct-11 21:30N 45°33' W 122°43'0 0.1
2017-Oct-11 21:01N 45°33' W 122°43'0 0.0
2017-Oct-11 20:31N 45°33' W 122°43'0 0.1
2017-Oct-11 20:00N 45°33' W 122°43'0 0.2
2017-Oct-11 19:30N 45°34' W 122°43'0 0.1
2017-Oct-11 19:00N 45°33' W 122°43'0 0.0
2017-Oct-11 18:30N 45°33' W 122°43'0 0.0
2017-Oct-11 18:00N 45°33' W 122°43'0 0.0
2017-Oct-11 17:31N 45°33' W 122°43'0 0.0
2017-Oct-11 17:01N 45°33' W 122°43'  
Track history (hours):
 
Tides and Currents Weather Stations Pressure Air Temp Water Temp Dewpoint Dewpoint Depression Visibility Wind Speed Wind Dir Waves Ship Positions

Diane B.

Owner: Bernert Barge lines, Oregon City, OR. More information available from US FCC via Universal Licensing System and Coast Guard Vessel Documentation Center.

Last reported at 2017-Oct-19 06:07 UTC. Time now 2017-Oct-19 16:20 UTC.
Position N 45°35' W 122°10'.

Length 25 m.

Type: Towing. MMSI: 367575580.

Date/timePositionNaut miles runAvg speedWind from/ knotsBaromVisibWave heightAir tempDewpointWater temp
2017-Oct-19 06:07N 45°35' W 122°10'1 6.1
2017-Oct-19 05:59N 45°34' W 122°12'3 5.5
2017-Oct-19 05:30N 45°33' W 122°15'4 5.5
2017-Oct-19 04:51N 45°33' W 122°20'2 5.1
2017-Oct-19 04:30N 45°34' W 122°22'3 5.3
2017-Oct-19 03:53N 45°34' W 122°27'3 5.6
2017-Oct-19 03:25N 45°35' W 122°30'3 5.8
2017-Oct-19 02:59N 45°36' W 122°33'3 5.9
2017-Oct-19 02:31N 45°36' W 122°37'3 6.0
2017-Oct-19 01:58N 45°38' W 122°41'3 6.1
2017-Oct-19 01:30N 45°39' W 122°45'3 5.2
2017-Oct-19 01:01N 45°37' W 122°47'2 4.2
2017-Oct-19 00:30N 45°35' W 122°46'3 5.6
2017-Oct-19 00:01N 45°33' W 122°43'0 0.1
2017-Oct-18 23:31N 45°33' W 122°43'3 5.3
2017-Oct-18 23:01N 45°35' W 122°46'2 4.1
2017-Oct-18 22:31N 45°37' W 122°47'0 0.0
2017-Oct-18 22:00N 45°37' W 122°47'2 3.8
2017-Oct-18 21:26N 45°35' W 122°46'3 5.9
2017-Oct-18 21:00N 45°33' W 122°43'1 1.9
2017-Oct-18 20:31N 45°33' W 122°42'3 6.4
2017-Oct-18 20:01N 45°30' W 122°40'0 0.9
2017-Oct-18 19:30N 45°29' W 122°40'2 4.0
2017-Oct-18 19:01N 45°31' W 122°40'3 5.6
2017-Oct-18 18:31N 45°33' W 122°43'3 5.8
2017-Oct-18 18:00N 45°31' W 122°40'2 3.9
2017-Oct-18 17:30N 45°29' W 122°40'0 0.4
2017-Oct-18 17:01N 45°29' W 122°40'0 0.1
2017-Oct-18 16:30N 45°30' W 122°40'0 0.0
2017-Oct-18 15:52N 45°29' W 122°40'0 0.2
2017-Oct-18 15:25N 45°29' W 122°40'0 0.1
2017-Oct-18 15:00N 45°29' W 122°40'0 0.4
2017-Oct-18 14:01N 45°29' W 122°40'0 0.0
2017-Oct-18 13:30N 45°29' W 122°40'0 0.0
2017-Oct-18 12:44N 45°29' W 122°40'0 0.0
2017-Oct-18 12:31N 45°29' W 122°40'0 0.0
2017-Oct-18 12:00N 45°29' W 122°40'0 0.0
2017-Oct-18 11:31N 45°29' W 122°40'0 0.0
2017-Oct-18 11:01N 45°29' W 122°40'0 0.0
2017-Oct-18 10:30N 45°29' W 122°40'0 0.0
2017-Oct-18 10:00N 45°29' W 122°40'0 0.0
2017-Oct-18 09:30N 45°29' W 122°40'0 0.0
2017-Oct-18 08:48N 45°29' W 122°40'0 0.2
2017-Oct-18 08:18N 45°29' W 122°40'0 0.1
2017-Oct-18 08:01N 45°29' W 122°40'0 0.3
2017-Oct-18 07:30N 45°29' W 122°40'0 0.3
2017-Oct-18 07:01N 45°29' W 122°40'0 0.0
2017-Oct-18 06:30N 45°29' W 122°40'0 0.0
2017-Oct-18 05:51N 45°29' W 122°40'0 0.0
2017-Oct-18 05:30N 45°29' W 122°40'0 0.0
2017-Oct-18 05:00N 45°29' W 122°40'0 0.0
2017-Oct-18 04:30N 45°29' W 122°40'0 0.0
2017-Oct-18 04:00N 45°29' W 122°40'0 0.0
2017-Oct-18 03:30N 45°29' W 122°40'0 0.0
2017-Oct-18 03:01N 45°29' W 122°40'0 0.0
2017-Oct-18 02:30N 45°29' W 122°40'0 0.0
2017-Oct-18 02:01N 45°29' W 122°40'0 0.0
2017-Oct-18 01:30N 45°29' W 122°40'0 0.0
2017-Oct-18 01:01N 45°29' W 122°40'0 0.0
2017-Oct-18 00:31N 45°29' W 122°40'0 0.0
2017-Oct-18 00:01N 45°29' W 122°40'0 0.0
2017-Oct-17 23:28N 45°29' W 122°40'0 0.0
2017-Oct-17 23:00N 45°29' W 122°40'0 0.0
2017-Oct-17 22:30N 45°29' W 122°40'0 0.0
2017-Oct-17 22:01N 45°29' W 122°40'0 0.0
2017-Oct-17 21:31N 45°29' W 122°40'0 0.0
2017-Oct-17 21:00N 45°29' W 122°40'0 0.0
2017-Oct-17 20:30N 45°29' W 122°40'0 0.0
2017-Oct-17 20:00N 45°29' W 122°40'0 0.2
2017-Oct-17 19:30N 45°29' W 122°40'1 1.3
2017-Oct-17 19:01N 45°30' W 122°40'2 3.2
2017-Oct-17 18:31N 45°31' W 122°40'2 4.1
2017-Oct-17 18:01N 45°33' W 122°42'2 4.8
2017-Oct-17 17:30N 45°35' W 122°45'2 4.6
2017-Oct-17 17:01N 45°36' W 122°47'3 6.4
2017-Oct-17 16:30N 45°39' W 122°45'1 2.9
2017-Oct-17 16:00N 45°39' W 122°44'3 6.3
2017-Oct-17 15:30N 45°37' W 122°40'3 5.5
2017-Oct-17 14:58N 45°36' W 122°36'3 6.0
2017-Oct-17 14:29N 45°35' W 122°32'3 5.9
2017-Oct-17 13:55N 45°34' W 122°27'2 5.5
2017-Oct-17 13:30N 45°34' W 122°24'3 5.1
2017-Oct-17 13:00N 45°34' W 122°20'3 5.3
2017-Oct-17 12:31N 45°33' W 122°17'3 5.6
2017-Oct-17 11:58N 45°34' W 122°13'2 0.1
2017-Oct-16 00:02N 45°35' W 122°10'1 5.9
2017-Oct-15 23:57N 45°35' W 122°11'3 6.0
2017-Oct-15 23:29N 45°33' W 122°14'3 5.8
2017-Oct-15 23:00N 45°33' W 122°18'3 6.0
2017-Oct-15 22:31N 45°34' W 122°22'3 6.1
2017-Oct-15 22:00N 45°34' W 122°26'3 6.0
2017-Oct-15 21:30N 45°35' W 122°30'3 6.3
2017-Oct-15 20:59N 45°36' W 122°34'3 6.6
2017-Oct-15 20:30N 45°37' W 122°39'3 5.3
2017-Oct-15 20:00N 45°38' W 122°42'3 4.9
2017-Oct-15 19:25N 45°39' W 122°46'2 6.2
2017-Oct-15 19:01N 45°37' W 122°47'3 7.0
2017-Oct-15 18:30N 45°34' W 122°44'1 2.5
2017-Oct-15 18:01N 45°34' W 122°43'1 1.3
2017-Oct-15 17:31N 45°33' W 122°42'4 7.2
2017-Oct-15 17:01N 45°30' W 122°40'1 1.9
2017-Oct-15 16:31N 45°31' W 122°40'2 4.8
2017-Oct-15 16:00N 45°33' W 122°42'0 0.4
2017-Oct-15 15:31N 45°33' W 122°42'3 6.4
2017-Oct-15 15:00N 45°30' W 122°40'5 4.3
2017-Oct-15 13:54N 45°34' W 122°44'2 5.9
2017-Oct-15 13:30N 45°35' W 122°46'2 0.1
2017-Oct-15 00:18N 45°37' W 122°47'0 0.0
2017-Oct-15 00:00N 45°37' W 122°47'2 3.4
2017-Oct-14 23:31N 45°35' W 122°46'2 4.0
2017-Oct-14 23:00N 45°34' W 122°44'0 0.0
2017-Oct-14 22:30N 45°34' W 122°44'0 0.0
2017-Oct-14 22:01N 45°34' W 122°44'2 3.5
2017-Oct-14 21:30N 45°35' W 122°46'4 8.0
2017-Oct-14 21:01N 45°39' W 122°46'5 9.2
2017-Oct-14 20:31N 45°44' W 122°46'5 9.2
2017-Oct-14 20:01N 45°48' W 122°47'5 9.4
2017-Oct-14 19:30N 45°53' W 122°48'5 9.4
2017-Oct-14 19:00N 45°57' W 122°49'5 9.5
2017-Oct-14 18:31N 46°02' W 122°52'4 8.9
2017-Oct-14 18:00N 46°05' W 122°56'2 4.0
2017-Oct-14 17:30N 46°07' W 122°58'0 0.4
2017-Oct-14 17:00N 46°07' W 122°58'0 0.4
2017-Oct-14 16:30N 46°07' W 122°58'1 1.7
2017-Oct-14 16:01N 46°06' W 122°58'5 9.5
2017-Oct-14 15:30N 46°02' W 122°53'1 2.7
2017-Oct-14 15:01N 46°01' W 122°52'4 8.4
2017-Oct-14 14:31N 45°58' W 122°49'4 8.3
2017-Oct-14 14:01N 45°53' W 122°48'4 8.1
2017-Oct-14 13:31N 45°49' W 122°48'4 7.7
2017-Oct-14 13:01N 45°46' W 122°46'4 8.0
2017-Oct-14 12:30N 45°42' W 122°46'3 7.0
2017-Oct-14 12:00N 45°39' W 122°44'4 7.8
2017-Oct-14 11:30N 45°37' W 122°39'4 7.6
2017-Oct-14 11:00N 45°36' W 122°34'4 7.8
2017-Oct-14 10:30N 45°35' W 122°29'4 7.1
2017-Oct-14 10:00N 45°34' W 122°24'3 6.3
2017-Oct-14 09:31N 45°33' W 122°20'3 5.8
2017-Oct-14 09:00N 45°33' W 122°15'4 7.3
2017-Oct-14 08:31N 45°35' W 122°11'4 7.1
2017-Oct-14 07:58N 45°35' W 122°06'12 0.8
2017-Oct-13 15:48N 45°42' W 121°51'10 5.0
2017-Oct-13 13:49N 45°37' W 122°03'3 7.6
2017-Oct-13 13:29N 45°35' W 122°06'5 7.2
2017-Oct-13 12:50N 45°34' W 122°12'2 7.5
2017-Oct-13 12:31N 45°33' W 122°15'4 6.9
2017-Oct-13 11:57N 45°34' W 122°21'3 5.8
2017-Oct-13 11:30N 45°34' W 122°24'3 6.2
2017-Oct-13 11:00N 45°35' W 122°28'3 6.8
2017-Oct-13 10:30N 45°36' W 122°33'3 6.7
2017-Oct-13 10:00N 45°36' W 122°38'4 6.8
2017-Oct-13 09:28N 45°38' W 122°42'3 6.9
2017-Oct-13 09:00N 45°40' W 122°46'510.8
2017-Oct-13 08:30N 45°46' W 122°46'3 4.1
2017-Oct-13 07:53N 45°48' W 122°47'3 7.0
2017-Oct-13 07:30N 45°51' W 122°47'4 7.0
2017-Oct-13 06:59N 45°54' W 122°48'4 7.5
2017-Oct-13 06:31N 45°58' W 122°49'5 8.0
2017-Oct-13 05:56N 46°02' W 122°53'3 8.0
2017-Oct-13 05:31N 46°05' W 122°54'3 6.1
2017-Oct-13 05:00N 46°07' W 122°58'0 0.9
2017-Oct-13 04:30N 46°07' W 122°58'2 4.3
2017-Oct-13 04:01N 46°05' W 122°56'1 1.8
2017-Oct-13 03:30N 46°05' W 122°55'4 7.9
2017-Oct-13 03:01N 46°02' W 122°52'6 8.5
2017-Oct-13 02:21N 45°57' W 122°49'3 9.2
2017-Oct-13 02:01N 45°53' W 122°48'5 9.3
2017-Oct-13 01:30N 45°49' W 122°48'5 9.4
2017-Oct-13 01:00N 45°44' W 122°46'5 9.7
2017-Oct-13 00:31N 45°39' W 122°46'4 7.7
2017-Oct-13 00:01N 45°36' W 122°47'3 5.6
2017-Oct-12 23:30N 45°34' W 122°44'1 1.4
2017-Oct-12 23:00N 45°33' W 122°43'0 0.1
2017-Oct-12 22:31N 45°33' W 122°43'0 0.0
2017-Oct-12 22:01N 45°33' W 122°43'0 0.0
2017-Oct-12 21:31N 45°33' W 122°43'0 0.0
2017-Oct-12 21:00N 45°33' W 122°43'0 0.0
2017-Oct-12 20:30N 45°33' W 122°43'0 0.0
2017-Oct-12 20:01N 45°33' W 122°43'0 0.0
2017-Oct-12 19:30N 45°33' W 122°43'0 0.0
2017-Oct-12 19:00N 45°33' W 122°43'0 0.0
2017-Oct-12 18:31N 45°33' W 122°43'0 0.0
2017-Oct-12 18:00N 45°33' W 122°43'0 0.1
2017-Oct-12 17:30N 45°33' W 122°43'0 0.0
2017-Oct-12 17:00N 45°33' W 122°43'0 0.1
2017-Oct-12 16:30N 45°33' W 122°43'0 0.0
2017-Oct-12 16:01N 45°33' W 122°43'0 0.0
2017-Oct-12 15:31N 45°33' W 122°43'0 0.1
2017-Oct-12 15:01N 45°33' W 122°43'0 0.0
2017-Oct-12 14:30N 45°33' W 122°43'0 0.1
2017-Oct-12 14:00N 45°33' W 122°43'0 0.0
2017-Oct-12 13:31N 45°33' W 122°43'0 0.0
2017-Oct-12 13:00N 45°33' W 122°43'0 0.1
2017-Oct-12 12:30N 45°33' W 122°43'0 0.1
2017-Oct-12 12:00N 45°33' W 122°43'0 0.0
2017-Oct-12 11:31N 45°33' W 122°43'0 0.0
2017-Oct-12 10:57N 45°33' W 122°43'0 0.0
2017-Oct-12 10:31N 45°33' W 122°43'0 0.0
2017-Oct-12 09:51N 45°33' W 122°43'0 0.0
2017-Oct-12 09:30N 45°33' W 122°43'0 0.0
2017-Oct-12 08:56N 45°33' W 122°43'0 0.0
2017-Oct-12 08:31N 45°33' W 122°43'0 0.0
2017-Oct-12 07:43N 45°33' W 122°43'0 0.0
2017-Oct-12 07:30N 45°33' W 122°43'0 0.1
2017-Oct-12 07:00N 45°33' W 122°43'0 0.1
2017-Oct-12 06:30N 45°33' W 122°43'0 0.1
2017-Oct-12 06:00N 45°33' W 122°43'0 0.1
2017-Oct-12 05:26N 45°33' W 122°43'0 0.0
2017-Oct-12 05:00N 45°33' W 122°43'0 0.0
2017-Oct-12 04:31N 45°33' W 122°43'0 0.0
2017-Oct-12 04:00N 45°33' W 122°43'0 0.1
2017-Oct-12 03:31N 45°33' W 122°43'0 0.1
2017-Oct-12 03:01N 45°33' W 122°43'0 0.0
2017-Oct-12 02:30N 45°33' W 122°43'0 0.0
2017-Oct-12 02:00N 45°33' W 122°43'0 0.1
2017-Oct-12 01:31N 45°33' W 122°43'0 0.1
2017-Oct-12 01:00N 45°33' W 122°43'0 0.1
2017-Oct-12 00:30N 45°33' W 122°43'0 0.0
2017-Oct-12 00:00N 45°33' W 122°43'0 0.0
2017-Oct-11 23:31N 45°33' W 122°43'0 0.1
2017-Oct-11 23:00N 45°33' W 122°43'0 0.1
2017-Oct-11 22:30N 45°33' W 122°43'0 0.0
2017-Oct-11 22:00N 45°33' W 122°43'0 0.1
2017-Oct-11 21:30N 45°33' W 122°43'0 0.1
2017-Oct-11 21:01N 45°33' W 122°43'0 0.0
2017-Oct-11 20:31N 45°33' W 122°43'0 0.1
2017-Oct-11 20:00N 45°33' W 122°43'0 0.2
2017-Oct-11 19:30N 45°34' W 122°43'0 0.1
2017-Oct-11 19:00N 45°33' W 122°43'0 0.0
2017-Oct-11 18:30N 45°33' W 122°43'0 0.0
2017-Oct-11 18:00N 45°33' W 122°43'0 0.0
2017-Oct-11 17:31N 45°33' W 122°43'0 0.0
2017-Oct-11 17:01N 45°33' W 122°43'  

Dump ship's entire track history